createdAt,value
2018-01-31T01:53:19.594Z,9.70
2018-01-31T01:55:48.652Z,9.00
2018-01-31T01:58:17.485Z,10.17
2018-01-31T02:00:47.083Z,9.87
2018-01-31T02:03:16.704Z,10.50
2018-01-31T02:05:46.309Z,12.00
2018-01-31T02:08:15.935Z,9.87
2018-01-31T02:10:45.181Z,10.70
2018-01-31T02:13:14.918Z,11.80
2018-01-31T02:15:44.553Z,10.63
2018-01-31T02:18:13.382Z,11.90
2018-01-31T02:20:42.250Z,11.30
2018-01-31T02:23:11.107Z,10.70
2018-01-31T02:25:40.798Z,11.30
2018-01-31T02:28:10.443Z,11.80
2018-01-31T02:30:39.292Z,10.80
2018-01-31T02:33:08.902Z,11.23
2018-01-31T02:35:38.517Z,10.00
2018-01-31T02:38:08.149Z,10.97
2018-01-31T02:40:36.996Z,12.30
2018-01-31T02:43:06.409Z,11.37
2018-01-31T02:45:36.014Z,10.27
2018-01-31T02:48:05.634Z,9.80
2018-01-31T02:50:34.465Z,10.00
2018-01-31T02:53:03.303Z,9.47
2018-01-31T02:55:32.393Z,9.90
2018-01-31T02:58:02.023Z,10.83
2018-01-31T03:00:30.882Z,10.90
2018-01-31T03:03:00.509Z,11.03
2018-01-31T03:05:30.140Z,9.63
2018-01-31T03:07:59.046Z,10.80
2018-01-31T03:10:27.894Z,10.33
2018-01-31T03:12:56.766Z,10.00
2018-01-31T03:15:26.385Z,9.50
2018-01-31T03:17:55.997Z,10.17
2018-01-31T03:20:25.603Z,9.23
2018-01-31T03:22:55.246Z,10.23
2018-01-31T03:25:24.093Z,9.87
2018-01-31T03:27:52.944Z,11.03
2018-01-31T03:30:21.788Z,10.60
2018-01-31T03:32:51.382Z,10.07
2018-01-31T03:35:21.019Z,8.93
2018-01-31T03:37:49.862Z,8.60
2018-01-31T03:40:19.493Z,9.10
2018-01-31T03:42:48.545Z,8.10
2018-01-31T03:45:17.403Z,8.50
2018-01-31T03:47:46.281Z,8.37
2018-01-31T03:50:15.126Z,6.70
2018-01-31T03:52:43.950Z,6.70
2018-01-31T03:55:12.778Z,7.43
2018-01-31T03:57:42.374Z,5.57
2018-01-31T04:00:11.972Z,5.23
2018-01-31T04:02:40.789Z,4.70
2018-01-31T04:05:09.985Z,5.63
2018-01-31T04:07:38.825Z,4.57
2018-01-31T04:10:08.295Z,4.00
2018-01-31T04:12:37.174Z,3.83
2018-01-31T04:15:05.986Z,5.27
2018-01-31T04:17:34.822Z,5.97
2018-01-31T04:20:04.429Z,5.67
2018-01-31T04:22:34.041Z,4.30
2018-01-31T04:25:03.645Z,4.40
2018-01-31T04:27:33.230Z,3.83
2018-01-31T04:30:02.073Z,3.40
2018-01-31T04:32:30.878Z,4.20
2018-01-31T04:34:59.713Z,3.70
2018-01-31T04:37:29.309Z,3.60
2018-01-31T04:39:58.141Z,3.83
2018-01-31T04:42:27.744Z,3.87
2018-01-31T04:44:56.579Z,3.37
2018-01-31T04:47:27.160Z,3.27
2018-01-31T04:49:55.986Z,3.43
2018-01-31T04:52:24.821Z,2.57
2018-01-31T04:54:53.638Z,3.03
2018-01-31T04:57:23.245Z,3.50
2018-01-31T04:59:52.818Z,2.60
2018-01-31T05:02:21.658Z,3.30
2018-01-31T05:04:51.476Z,2.83
2018-01-31T05:07:20.327Z,2.97
2018-01-31T05:09:49.975Z,3.40
2018-01-31T05:12:18.794Z,3.37
2018-01-31T05:14:47.647Z,7.70
2018-01-31T05:17:16.482Z,8.67
2018-01-31T05:19:46.219Z,10.80
2018-01-31T05:22:15.819Z,8.37
2018-01-31T05:24:44.646Z,8.10
2018-01-31T05:27:14.324Z,7.40
2018-01-31T05:29:43.145Z,7.00
2018-01-31T05:32:11.954Z,6.50
2018-01-31T05:34:40.818Z,9.50
2018-01-31T05:37:09.671Z,7.80
2018-01-31T05:39:39.262Z,7.87
2018-01-31T05:42:08.108Z,8.90
2018-01-31T05:44:37.835Z,9.87
2018-01-31T05:47:07.446Z,8.70
2018-01-31T05:49:36.977Z,8.53
2018-01-31T05:52:05.846Z,9.17
2018-01-31T05:54:35.478Z,9.10
2018-01-31T05:57:05.181Z,7.40
2018-01-31T05:59:34.078Z,7.97
2018-01-31T06:02:02.927Z,7.80
2018-01-31T06:04:33.264Z,7.80
2018-01-31T06:07:02.932Z,6.10
2018-01-31T06:09:31.757Z,7.40
2018-01-31T06:12:00.592Z,6.33
2018-01-31T06:14:29.423Z,7.50
2018-01-31T06:16:58.782Z,7.20
2018-01-31T06:19:27.617Z,6.67
2018-01-31T06:21:56.449Z,6.20
2018-01-31T06:24:25.283Z,5.70
2018-01-31T06:26:54.135Z,5.53
2018-01-31T06:29:22.978Z,5.43
2018-01-31T06:31:51.818Z,6.07
2018-01-31T06:34:20.660Z,5.00
2018-01-31T06:36:50.272Z,4.40
2018-01-31T06:39:22.791Z,5.17
2018-01-31T06:41:51.673Z,4.43
2018-01-31T06:44:20.610Z,4.33
2018-01-31T06:46:49.456Z,4.77
2018-01-31T06:49:18.339Z,4.97
2018-01-31T06:51:47.346Z,5.53
2018-01-31T06:54:16.191Z,4.93
2018-01-31T06:56:45.113Z,4.90
2018-01-31T06:59:13.953Z,5.23
2018-01-31T07:01:43.733Z,4.80
2018-01-31T07:04:13.375Z,4.67
2018-01-31T07:06:42.207Z,4.60
2018-01-31T07:09:11.047Z,4.40
2018-01-31T07:11:40.636Z,4.67
2018-01-31T07:14:10.250Z,4.63
2018-01-31T07:16:39.079Z,3.90
2018-01-31T07:19:07.927Z,3.73
2018-01-31T07:21:37.536Z,4.23
2018-01-31T07:24:07.215Z,3.97
2018-01-31T07:26:36.023Z,4.10
2018-01-31T07:29:05.623Z,4.60
2018-01-31T07:31:34.450Z,4.00
2018-01-31T07:34:03.284Z,3.77
2018-01-31T07:36:32.107Z,4.53
2018-01-31T07:39:00.934Z,4.03
2018-01-31T07:41:29.771Z,4.40
2018-01-31T07:43:59.370Z,4.13
2018-01-31T07:46:28.217Z,3.70
2018-01-31T07:48:57.062Z,4.17
2018-01-31T07:51:25.897Z,3.57
2018-01-31T07:53:54.723Z,3.60
2018-01-31T07:56:24.322Z,3.27
2018-01-31T07:58:53.510Z,3.70
2018-01-31T08:01:23.122Z,2.80
2018-01-31T08:03:52.805Z,2.97
2018-01-31T08:06:22.427Z,2.40
2018-01-31T08:08:51.295Z,2.47
2018-01-31T08:11:20.102Z,2.80
2018-01-31T08:13:48.942Z,2.70
2018-01-31T08:16:17.784Z,3.07
2018-01-31T08:18:46.607Z,2.67
2018-01-31T08:21:16.214Z,2.83
2018-01-31T08:23:45.053Z,2.47
2018-01-31T08:26:13.897Z,2.53
2018-01-31T08:28:42.738Z,2.10
2018-01-31T08:31:11.570Z,2.67
2018-01-31T08:33:40.431Z,2.40
2018-01-31T08:36:10.779Z,2.53
2018-01-31T08:38:40.378Z,2.60
2018-01-31T08:41:09.973Z,3.00
2018-01-31T08:43:39.590Z,2.97
2018-01-31T08:46:08.468Z,3.00
2018-01-31T08:48:37.342Z,2.90
2018-01-31T08:51:06.211Z,2.70
2018-01-31T08:53:35.822Z,2.13
2018-01-31T08:56:05.547Z,2.40
2018-01-31T08:58:34.395Z,1.93
2018-01-31T09:01:03.230Z,2.00
2018-01-31T09:03:32.086Z,2.53
2018-01-31T09:06:00.903Z,2.27
2018-01-31T09:08:29.753Z,2.47
2018-01-31T09:10:58.569Z,2.50
2018-01-31T09:13:28.189Z,2.97
2018-01-31T09:15:57.034Z,3.23
2018-01-31T09:18:25.889Z,3.90
2018-01-31T09:20:54.711Z,3.00
2018-01-31T09:23:23.566Z,2.30
2018-01-31T09:25:52.454Z,2.37
2018-01-31T09:28:21.327Z,2.40
2018-01-31T09:30:50.614Z,2.10
2018-01-31T09:33:20.306Z,3.37
2018-01-31T09:35:49.941Z,2.60
2018-01-31T09:38:18.778Z,2.50
2018-01-31T09:40:47.621Z,2.50
2018-01-31T09:43:16.433Z,2.50
2018-01-31T09:45:45.294Z,2.77
2018-01-31T09:48:14.129Z,2.47
2018-01-31T09:50:43.709Z,3.27
2018-01-31T09:53:12.576Z,3.40
2018-01-31T09:55:42.183Z,3.07
2018-01-31T09:58:11.026Z,2.17
2018-01-31T10:00:39.865Z,1.90
2018-01-31T10:03:09.928Z,1.67
2018-01-31T10:05:40.670Z,1.93
2018-01-31T10:08:09.518Z,2.37
2018-01-31T10:10:38.344Z,2.20
2018-01-31T10:13:07.178Z,1.83
2018-01-31T10:15:36.028Z,2.10
2018-01-31T10:18:04.867Z,1.57
2018-01-31T10:20:33.709Z,1.70
2018-01-31T10:23:02.545Z,2.03
2018-01-31T10:25:31.389Z,1.60
2018-01-31T10:28:01.149Z,1.50
2018-01-31T10:30:30.144Z,1.63
2018-01-31T10:32:59.037Z,1.70
2018-01-31T10:35:27.871Z,1.30
2018-01-31T10:37:56.694Z,1.20
2018-01-31T10:40:25.978Z,1.90
2018-01-31T10:42:55.619Z,1.40
2018-01-31T10:45:24.453Z,1.53
2018-01-31T10:47:54.101Z,1.73
2018-01-31T10:50:23.562Z,1.43
2018-01-31T10:52:53.165Z,1.60
2018-01-31T10:57:28.548Z,1.40
2018-01-31T10:57:51.639Z,1.43
2018-01-31T11:00:20.483Z,1.80
2018-01-31T11:02:49.338Z,1.67
2018-01-31T11:05:18.505Z,1.50
2018-01-31T11:07:48.457Z,1.47
2018-01-31T11:10:18.080Z,1.50
2018-01-31T11:12:47.669Z,1.63
2018-01-31T11:15:17.339Z,1.23
2018-01-31T11:17:46.148Z,1.63
2018-01-31T11:20:15.042Z,1.17
2018-01-31T11:22:43.862Z,1.20
2018-01-31T11:25:12.703Z,1.03
2018-01-31T11:27:41.663Z,1.20
2018-01-31T11:30:10.640Z,1.00
2018-01-31T11:32:40.394Z,1.60
2018-01-31T11:35:11.065Z,1.73
2018-01-31T11:37:40.794Z,1.97
2018-01-31T11:40:09.640Z,1.63
2018-01-31T11:42:38.484Z,1.83
2018-01-31T11:45:07.328Z,1.70
2018-01-31T11:47:36.173Z,2.17
2018-01-31T11:50:05.020Z,1.50
2018-01-31T11:52:33.846Z,1.23
2018-01-31T11:55:02.701Z,1.70
2018-01-31T11:57:32.318Z,1.23
2018-01-31T12:00:01.136Z,1.03
2018-01-31T12:02:29.982Z,1.90
2018-01-31T12:04:59.801Z,1.27
2018-01-31T12:07:29.452Z,1.30
2018-01-31T12:09:59.022Z,1.00
2018-01-31T12:12:40.557Z,0.90
2018-01-31T12:15:21.351Z,0.87
2018-01-31T12:17:50.191Z,1.00
2018-01-31T12:20:31.632Z,1.10
2018-01-31T12:23:12.317Z,1.53
2018-01-31T12:25:53.777Z,1.10
2018-01-31T12:28:34.574Z,1.10
2018-01-31T12:31:16.286Z,1.10
2018-01-31T12:33:57.795Z,1.03
2018-01-31T12:36:38.509Z,0.87
2018-01-31T12:39:06.846Z,1.00
2018-01-31T12:41:35.970Z,1.10
2018-01-31T12:44:04.965Z,1.10
2018-01-31T12:49:59.941Z,1.80
2018-01-31T12:52:40.563Z,2.40
2018-01-31T12:55:21.384Z,1.70
2018-01-31T12:58:02.210Z,2.40
2018-01-31T13:00:54.909Z,1.93
2018-01-31T13:03:37.337Z,2.80
2018-01-31T13:06:18.585Z,2.90
2018-01-31T13:08:59.071Z,2.20
2018-01-31T13:11:40.414Z,2.57
2018-01-31T13:14:20.845Z,2.20
2018-01-31T13:17:01.020Z,3.00
2018-01-31T13:23:02.842Z,2.77
2018-01-31T13:25:44.077Z,2.00
2018-01-31T13:28:30.332Z,2.20
2018-01-31T13:31:15.502Z,1.83
2018-01-31T13:33:55.858Z,2.20
2018-01-31T13:36:36.215Z,2.90
2018-01-31T13:39:17.275Z,2.63
2018-01-31T13:41:57.675Z,1.47
2018-01-31T13:44:51.000Z,1.27
2018-01-31T13:47:31.455Z,1.20
2018-01-31T13:50:11.762Z,1.03
2018-01-31T13:52:52.270Z,1.40
2018-01-31T13:55:32.736Z,1.20
2018-01-31T13:58:13.114Z,1.23
2018-01-31T14:00:53.548Z,0.90
2018-01-31T14:03:34.172Z,1.00
2018-01-31T14:06:15.342Z,0.73
2018-01-31T14:08:56.508Z,1.20
2018-01-31T14:11:36.938Z,1.10
2018-01-31T14:14:17.332Z,0.80
2018-01-31T14:16:57.754Z,0.90
2018-01-31T14:19:38.112Z,0.90
2018-01-31T14:22:18.401Z,0.80
2018-01-31T14:24:59.495Z,0.70
2018-01-31T14:27:40.671Z,1.03
2018-01-31T14:30:21.855Z,0.63
2018-01-31T14:33:03.046Z,0.83
2018-01-31T14:35:43.694Z,1.00
2018-01-31T14:38:12.578Z,1.10
2018-01-31T14:40:41.458Z,0.80
2018-01-31T14:43:09.584Z,0.80
2018-01-31T14:45:37.705Z,0.83
2018-01-31T14:48:05.821Z,0.70
2018-01-31T14:50:33.930Z,0.90
2018-01-31T14:53:02.034Z,0.70
2018-01-31T14:55:30.938Z,0.80
2018-01-31T14:57:59.799Z,0.80
2018-01-31T15:00:27.919Z,0.77
2018-01-31T15:02:56.006Z,0.90
2018-01-31T15:05:24.134Z,0.90
2018-01-31T15:07:53.011Z,0.90
2018-01-31T15:10:21.134Z,0.80
2018-01-31T15:12:49.206Z,0.80
2018-01-31T15:15:17.335Z,0.80
2018-01-31T15:17:46.289Z,1.00
2018-01-31T15:20:14.437Z,1.13
2018-01-31T15:22:42.566Z,1.10
2018-01-31T15:25:11.458Z,1.20
2018-01-31T15:27:39.652Z,1.97
2018-01-31T15:30:07.701Z,1.57
2018-01-31T15:32:35.817Z,1.40
2018-01-31T15:35:03.906Z,1.80
2018-01-31T15:37:32.015Z,1.40
2018-01-31T15:40:00.878Z,1.60
2018-01-31T15:42:29.023Z,1.70
2018-01-31T15:44:57.099Z,1.60
2018-01-31T15:47:25.238Z,1.40
2018-01-31T15:49:53.323Z,1.80
2018-01-31T15:52:21.414Z,1.50
2018-01-31T15:54:49.525Z,1.80
2018-01-31T15:57:18.403Z,1.93
2018-01-31T15:59:47.192Z,2.10
2018-01-31T16:02:16.076Z,1.97
2018-01-31T16:04:44.196Z,1.47
2018-01-31T16:07:12.806Z,2.17
2018-01-31T16:09:40.919Z,1.83
2018-01-31T16:12:09.779Z,1.50
2018-01-31T16:14:37.914Z,2.03
2018-01-31T16:17:06.514Z,1.40
2018-01-31T16:19:46.998Z,1.60
2018-01-31T16:22:15.602Z,2.23
2018-01-31T16:24:44.184Z,1.40
2018-01-31T16:27:21.376Z,1.90
2018-01-31T16:30:02.628Z,1.90
2018-01-31T16:32:43.123Z,2.00
2018-01-31T16:35:12.522Z,1.97
2018-01-31T16:37:42.227Z,1.93
2018-01-31T16:40:11.625Z,1.30
2018-01-31T16:42:40.222Z,1.90
2018-01-31T16:45:09.585Z,2.07
2018-01-31T16:47:38.160Z,1.77
2018-01-31T16:50:06.784Z,2.53
2018-01-31T16:52:35.386Z,2.10
2018-01-31T16:55:04.510Z,1.80
2018-01-31T16:57:33.125Z,2.10
2018-01-31T17:00:02.500Z,1.30
2018-01-31T17:02:32.493Z,1.90
2018-01-31T17:05:01.085Z,1.70
2018-01-31T17:07:29.705Z,1.77
2018-01-31T17:09:58.296Z,1.67
2018-01-31T17:12:26.921Z,3.00
2018-01-31T17:14:56.554Z,2.23
2018-01-31T17:17:25.475Z,2.70
2018-01-31T17:19:54.311Z,2.33
2018-01-31T17:22:23.902Z,2.00
2018-01-31T17:24:52.800Z,2.30
2018-01-31T17:27:21.621Z,1.93
2018-01-31T17:29:50.490Z,2.10
2018-01-31T17:32:20.124Z,1.90
2018-01-31T17:34:48.980Z,2.33
2018-01-31T17:37:18.588Z,2.73
2018-01-31T17:39:48.219Z,2.43
2018-01-31T17:42:17.069Z,3.47
2018-01-31T17:44:45.912Z,2.27
2018-01-31T17:47:14.746Z,2.77
2018-01-31T17:49:43.553Z,2.97
2018-01-31T17:52:12.402Z,2.20
2018-01-31T17:54:41.253Z,2.60
2018-01-31T17:57:10.122Z,2.50
2018-01-31T17:59:38.962Z,2.90
2018-01-31T18:02:08.790Z,2.53
2018-01-31T18:04:38.408Z,2.93
2018-01-31T18:07:08.008Z,2.97
2018-01-31T18:09:37.641Z,2.60
2018-01-31T18:12:06.490Z,2.50
2018-01-31T18:14:35.348Z,1.60
2018-01-31T18:17:04.214Z,1.20
2018-01-31T18:19:33.038Z,1.33
2018-01-31T18:22:01.898Z,1.63
2018-01-31T18:24:30.779Z,1.00
2018-01-31T18:26:59.627Z,1.03
2018-01-31T18:29:28.462Z,0.90
2018-01-31T18:31:57.333Z,1.30
2018-01-31T18:34:26.943Z,1.47
2018-01-31T18:36:56.574Z,1.57
2018-01-31T18:39:25.409Z,1.40
2018-01-31T18:41:54.284Z,2.07
2018-01-31T18:44:23.106Z,1.63
2018-01-31T18:46:53.462Z,1.50
2018-01-31T18:49:22.915Z,1.87
2018-01-31T18:51:51.779Z,1.33
2018-01-31T18:54:20.809Z,1.90
2018-01-31T18:56:49.714Z,1.50
2018-01-31T18:59:18.583Z,1.63
2018-01-31T19:01:48.206Z,1.20
2018-01-31T19:04:17.072Z,1.47
2018-01-31T19:06:45.932Z,1.80
2018-01-31T19:09:14.772Z,2.30
2018-01-31T19:11:45.106Z,2.00
2018-01-31T19:14:14.749Z,2.03
2018-01-31T19:16:43.579Z,1.87
2018-01-31T19:19:12.445Z,2.20
2018-01-31T19:21:41.282Z,2.20
2018-01-31T19:24:10.102Z,2.40
2018-01-31T19:26:38.946Z,2.47
2018-01-31T19:29:07.778Z,2.60
2018-01-31T19:31:36.602Z,2.50
2018-01-31T19:34:05.413Z,2.50
2018-01-31T19:36:34.287Z,3.03
2018-01-31T19:39:03.137Z,2.50
2018-01-31T19:41:31.989Z,2.77
2018-01-31T19:44:01.603Z,2.00
2018-01-31T19:46:32.031Z,4.33
2018-01-31T19:49:01.639Z,2.67
2018-01-31T19:51:32.008Z,1.80
2018-01-31T19:54:00.839Z,1.77
2018-01-31T19:56:29.703Z,2.33
2018-01-31T19:58:58.568Z,2.10
2018-01-31T20:01:28.118Z,2.23
2018-01-31T20:03:56.970Z,2.00
2018-01-31T20:06:25.830Z,2.17
2018-01-31T20:08:55.450Z,2.17
2018-01-31T20:11:24.266Z,1.77
2018-01-31T20:13:53.152Z,2.30
2018-01-31T20:16:21.993Z,2.37
2018-01-31T20:18:51.585Z,2.93
2018-01-31T20:21:20.425Z,2.90
2018-01-31T20:23:49.249Z,2.70
2018-01-31T20:26:18.098Z,3.20
2018-01-31T20:28:46.929Z,3.20
2018-01-31T20:31:15.803Z,3.03
2018-01-31T20:33:44.606Z,3.20
2018-01-31T20:36:13.448Z,2.93
2018-01-31T20:38:42.737Z,3.50
2018-01-31T20:41:12.373Z,3.57
2018-01-31T20:43:41.210Z,2.67
2018-01-31T20:46:10.813Z,3.13
2018-01-31T20:48:41.173Z,3.60
2018-01-31T20:51:09.973Z,4.10
2018-01-31T20:53:38.810Z,3.40
2018-01-31T20:56:08.418Z,3.77
2018-01-31T20:58:38.032Z,3.63
2018-01-31T21:01:07.610Z,4.27
2018-01-31T21:03:36.461Z,4.60
2018-01-31T21:06:05.294Z,3.97
2018-01-31T21:08:34.151Z,3.90
2018-01-31T21:11:03.023Z,5.83
2018-01-31T21:13:31.872Z,4.23
2018-01-31T21:16:00.705Z,4.47
2018-01-31T21:18:30.311Z,5.57
2018-01-31T21:20:59.166Z,5.10
2018-01-31T21:23:28.783Z,5.67
2018-01-31T21:25:58.404Z,5.20
2018-01-31T21:28:27.222Z,5.13
2018-01-31T21:30:56.085Z,5.20
2018-01-31T21:33:25.661Z,5.50
2018-01-31T21:35:54.490Z,5.87
2018-01-31T21:38:23.335Z,6.10
2018-01-31T21:40:52.179Z,6.73
2018-01-31T21:43:21.015Z,7.10
2018-01-31T21:45:50.498Z,6.73
2018-01-31T21:48:19.925Z,7.60
2018-01-31T21:50:49.578Z,6.17
2018-01-31T21:53:18.425Z,6.70
2018-01-31T21:55:47.255Z,7.83
2018-01-31T21:58:16.102Z,9.00
2018-01-31T22:00:44.918Z,10.23
2018-01-31T22:03:13.781Z,8.60
2018-01-31T22:05:42.618Z,9.07
2018-01-31T22:08:11.449Z,8.37
2018-01-31T22:10:41.147Z,9.50
2018-01-31T22:13:10.807Z,9.63
2018-01-31T22:15:39.640Z,9.60
2018-01-31T22:18:08.473Z,11.30
2018-01-31T22:20:37.323Z,9.80
2018-01-31T22:23:06.940Z,11.70
2018-01-31T22:25:35.781Z,10.80
2018-01-31T22:28:04.633Z,11.70
2018-01-31T22:30:33.481Z,10.17
2018-01-31T22:33:03.136Z,11.60
2018-01-31T22:35:31.979Z,11.60
2018-01-31T22:38:00.814Z,11.50
2018-01-31T22:40:29.885Z,12.13
2018-01-31T22:42:59.505Z,11.20
2018-01-31T22:45:28.403Z,10.33
2018-01-31T22:47:57.255Z,11.80
2018-01-31T22:50:26.867Z,9.10
2018-01-31T22:52:55.765Z,13.20
2018-01-31T22:55:24.603Z,12.47
2018-01-31T22:57:53.492Z,13.13
2018-01-31T23:00:22.314Z,12.80
2018-01-31T23:02:51.937Z,13.20
2018-01-31T23:05:20.778Z,9.53
2018-01-31T23:07:50.056Z,8.53
2018-01-31T23:10:18.885Z,7.90
2018-01-31T23:12:53.362Z,8.67
2018-01-31T23:15:22.205Z,10.10
2018-01-31T23:17:56.929Z,10.50
2018-01-31T23:20:26.533Z,10.07
2018-01-31T23:22:56.322Z,9.27
2018-01-31T23:25:25.170Z,9.67
2018-01-31T23:27:54.022Z,8.47
2018-01-31T23:30:23.741Z,9.90
2018-01-31T23:32:53.349Z,7.87
2018-01-31T23:35:22.942Z,7.07
2018-01-31T23:37:51.796Z,8.10
2018-01-31T23:40:20.630Z,7.20
2018-01-31T23:42:50.220Z,7.73
2018-01-31T23:45:19.064Z,8.53
2018-01-31T23:47:47.893Z,7.83
2018-01-31T23:50:16.754Z,9.00
2018-01-31T23:52:45.574Z,9.40
2018-01-31T23:55:14.428Z,9.37
2018-01-31T23:57:44.025Z,11.07
